Time;durP1;ratioP1;P1;durP2;ratioP2;P2;SDS_P1;SDS_P2;PMS_P1;PMS_P2;Temp;Humidity;BMP_temperature;BMP_pressure;BME280_temperature;BME280_humidity;BME280_pressure;Samples;Min_cycle;Max_cycle;Signal;HPM_P1;HPM_P2
2023/12/14 00:01:13;;;;;;;;;;;7.90;91.10;;;;;;4998291;28;92175;-45
2023/12/14 00:03:43;;;;;;;;;;;7.90;91.10;;;;;;4994463;28;92880;-45
2023/12/14 00:06:10;;;;;;;;;;;7.90;91.10;;;;;;4995074;28;93587;-44
2023/12/14 00:08:35;;;;;;;;;;;7.90;91.10;;;;;;4999270;28;92065;-45
2023/12/14 00:11:08;;;;;;;;;;;7.90;91.00;;;;;;4994856;28;91944;-45
2023/12/14 00:13:33;;;;;;;;;;;7.90;91.10;;;;;;4996955;28;92081;-45
2023/12/14 00:15:59;;;;;;;;;;;7.90;91.10;;;;;;4998199;28;91900;-45
2023/12/14 00:18:25;;;;;;;;;;;7.90;91.10;;;;;;4992882;28;93548;-46
2023/12/14 00:20:51;;;;;;;;;;;7.90;91.10;;;;;;4994229;28;92050;-46
2023/12/14 00:23:16;;;;;;;;;;;7.90;91.10;;;;;;4997035;28;92864;-45
2023/12/14 00:25:42;;;;;;;;;;;8.00;91.10;;;;;;4998208;28;92936;-46
2023/12/14 00:28:08;;;;;;;;;;;7.90;91.00;;;;;;4997571;28;92259;-46
2023/12/14 00:30:33;;;;;;;;;;;7.90;91.00;;;;;;4998967;28;91811;-46
2023/12/14 00:32:59;;;;;;;;;;;7.90;91.10;;;;;;4995058;28;92480;-45
2023/12/14 00:35:24;;;;;;;;;;;7.90;91.00;;;;;;4995592;28;91710;-46
2023/12/14 00:37:50;;;;;;;;;;;7.90;91.00;;;;;;4994281;28;92528;-45
2023/12/14 00:40:15;;;;;;;;;;;8.00;91.10;;;;;;4996121;28;92394;-46
2023/12/14 00:42:41;;;;;;;;;;;7.90;91.10;;;;;;4994590;28;92958;-46
2023/12/14 00:45:07;;;;;;;;;;;8.00;91.00;;;;;;4994982;28;91803;-45
2023/12/14 00:47:32;;;;;;;;;;;8.00;91.10;;;;;;4995558;28;92006;-46
2023/12/14 00:49:58;;;;;;;;;;;8.00;91.10;;;;;;4996426;28;91775;-46
2023/12/14 00:52:23;;;;;;;;;;;8.00;91.00;;;;;;4998264;28;92214;-45
2023/12/14 00:54:49;;;;;;;;;;;8.00;91.00;;;;;;5000984;28;92020;-46
2023/12/14 00:57:14;;;;;;;;;;;8.00;91.00;;;;;;4996156;28;92532;-45
2023/12/14 00:59:40;;;;;;;;;;;8.00;91.00;;;;;;4998840;28;91200;-47
2023/12/14 01:02:06;;;;;;;;;;;8.00;91.00;;;;;;4994235;28;91987;-45
2023/12/14 01:04:31;;;;;;;;;;;8.00;91.10;;;;;;4995652;28;92541;-45
2023/12/14 01:06:57;;;;;;;;;;;8.00;90.90;;;;;;4995814;28;93134;-45
2023/12/14 01:09:23;;;;;;;;;;;8.00;90.90;;;;;;4996958;28;92698;-45
2023/12/14 01:11:49;;;;;;;;;;;8.00;90.90;;;;;;4999563;28;92455;-46
2023/12/14 01:14:14;;;;;;;;;;;8.00;90.90;;;;;;4996957;28;92422;-45
2023/12/14 01:16:40;;;;;;;;;;;8.00;90.90;;;;;;5000051;28;93521;-46
2023/12/14 01:19:06;;;;;;;;;;;8.00;90.90;;;;;;4994020;28;92035;-45
2023/12/14 01:21:31;;;;;;;;;;;8.00;90.90;;;;;;4992021;28;92164;-46
2023/12/14 01:23:57;;;;;;;;;;;8.00;90.90;;;;;;4993089;28;91928;-45
2023/12/14 01:26:23;;;;;;;;;;;8.00;90.90;;;;;;4993446;28;92091;-45
2023/12/14 01:28:48;;;;;;;;;;;8.00;90.90;;;;;;4994328;28;92398;-45
2023/12/14 01:31:14;;;;;;;;;;;8.00;90.80;;;;;;4997368;28;94499;-45
2023/12/14 01:33:39;;;;;;;;;;;8.00;90.80;;;;;;5000223;28;92049;-47
2023/12/14 01:36:05;;;;;;;;;;;8.00;90.70;;;;;;4995381;28;93009;-45
2023/12/14 01:38:31;;;;;;;;;;;8.00;90.70;;;;;;4994689;28;92051;-45
2023/12/14 01:40:56;;;;;;;;;;;8.00;90.70;;;;;;4997082;28;92029;-46
2023/12/14 01:43:22;;;;;;;;;;;8.00;90.70;;;;;;4994145;28;93471;-46
2023/12/14 01:45:47;;;;;;;;;;;8.00;90.70;;;;;;4997956;28;92042;-46
2023/12/14 01:48:13;;;;;;;;;;;8.00;90.70;;;;;;4994856;28;91748;-45
2023/12/14 01:50:38;;;;;;;;;;;8.00;90.60;;;;;;4994877;28;92367;-46
2023/12/14 01:53:04;;;;;;;;;;;8.00;90.60;;;;;;4993170;28;92234;-45
2023/12/14 01:55:29;;;;;;;;;;;8.00;90.60;;;;;;4997373;28;93014;-47
2023/12/14 01:57:55;;;;;;;;;;;8.00;90.60;;;;;;4992860;28;92226;-45
2023/12/14 02:00:40;;;;;;;;;;;8.00;90.50;;;;;;4996088;28;91932;-45
2023/12/14 02:03:06;;;;;;;;;;;8.00;90.50;;;;;;4999218;28;92544;-46
2023/12/14 02:05:32;;;;;;;;;;;8.00;90.40;;;;;;4996880;28;92134;-45
2023/12/14 02:07:58;;;;;;;;;;;8.00;90.30;;;;;;4994766;28;91923;-44
2023/12/14 02:10:23;;;;;;;;;;;8.00;90.20;;;;;;4995193;28;93568;-46
2023/12/14 02:12:49;;;;;;;;;;;8.00;90.10;;;;;;4992456;28;91387;-45
2023/12/14 02:15:14;;;;;;;;;;;8.00;90.10;;;;;;4991965;28;92436;-46
2023/12/14 02:17:40;;;;;;;;;;;8.00;90.10;;;;;;4994715;28;92510;-47
2023/12/14 02:20:06;;;;;;;;;;;8.00;90.10;;;;;;4996055;28;93025;-46
2023/12/14 02:22:47;;;;;;;;;;;8.00;90.10;;;;;;4995351;28;92572;-47
2023/12/14 02:25:13;;;;;;;;;;;8.00;90.10;;;;;;4994860;28;92003;-46
2023/12/14 02:27:38;;;;;;;;;;;8.00;90.20;;;;;;4992052;28;92066;-45
2023/12/14 02:30:04;;;;;;;;;;;8.00;90.10;;;;;;4996887;28;92630;-47
2023/12/14 02:32:30;;;;;;;;;;;8.00;90.10;;;;;;4991823;28;92047;-46
2023/12/14 02:34:55;;;;;;;;;;;8.00;90.10;;;;;;4992217;28;92065;-47
2023/12/14 02:37:21;;;;;;;;;;;8.00;90.20;;;;;;4994613;28;91877;-45
2023/12/14 02:39:47;;;;;;;;;;;8.00;90.30;;;;;;4995797;28;91896;-46
2023/12/14 02:42:12;;;;;;;;;;;8.00;90.20;;;;;;4993996;28;93561;-48
2023/12/14 02:44:38;;;;;;;;;;;8.10;90.30;;;;;;5024860;28;93063;-46
2023/12/14 02:47:03;;;;;;;;;;;8.10;90.50;;;;;;4995429;28;92644;-45
2023/12/14 02:49:29;;;;;;;;;;;8.00;90.50;;;;;;4989739;28;92487;-46
2023/12/14 02:51:55;;;;;;;;;;;8.10;90.50;;;;;;4993142;28;92534;-45
2023/12/14 02:54:20;;;;;;;;;;;8.00;90.60;;;;;;4996621;28;92028;-45
2023/12/14 02:56:46;;;;;;;;;;;8.10;90.60;;;;;;4988547;28;92596;-47
2023/12/14 02:59:11;;;;;;;;;;;8.10;90.60;;;;;;4999073;28;92158;-45
2023/12/14 03:01:37;;;;;;;;;;;8.10;90.60;;;;;;4991521;28;91863;-46
2023/12/14 03:04:02;;;;;;;;;;;8.10;90.50;;;;;;4991087;28;92120;-46
2023/12/14 03:06:28;;;;;;;;;;;8.10;90.60;;;;;;4998286;28;91924;-45
2023/12/14 03:08:53;;;;;;;;;;;8.10;90.60;;;;;;4992456;28;93670;-45
2023/12/14 03:11:25;;;;;;;;;;;8.10;90.60;;;;;;4992333;28;92171;-47
2023/12/14 03:13:51;;;;;;;;;;;8.00;90.50;;;;;;4996101;28;91939;-47
2023/12/14 03:16:16;;;;;;;;;;;8.10;90.50;;;;;;4992914;28;92452;-46
2023/12/14 03:18:42;;;;;;;;;;;8.10;90.50;;;;;;4992624;28;92121;-46
2023/12/14 03:21:09;;;;;;;;;;;8.10;90.50;;;;;;4993997;28;92014;-46
2023/12/14 03:23:34;;;;;;;;;;;8.10;90.50;;;;;;4990829;28;92209;-46
2023/12/14 03:26:01;;;;;;;;;;;8.10;90.50;;;;;;4995336;28;91735;-45
2023/12/14 03:28:27;;;;;;;;;;;8.10;90.40;;;;;;4996252;28;93500;-45
2023/12/14 03:30:52;;;;;;;;;;;8.10;90.50;;;;;;4991250;28;92082;-48
2023/12/14 03:33:18;;;;;;;;;;;8.10;90.40;;;;;;4991153;28;92936;-45
2023/12/14 03:35:44;;;;;;;;;;;8.10;90.30;;;;;;4993819;28;92707;-45
2023/12/14 03:38:09;;;;;;;;;;;8.10;90.40;;;;;;4994885;28;92015;-46
2023/12/14 03:40:35;;;;;;;;;;;8.10;90.30;;;;;;4995664;28;92057;-46
2023/12/14 03:43:03;;;;;;;;;;;8.10;90.30;;;;;;4996350;28;92526;-46
2023/12/14 03:45:28;;;;;;;;;;;8.10;90.30;;;;;;4992925;28;92136;-45
2023/12/14 03:47:54;;;;;;;;;;;8.10;90.30;;;;;;4992178;28;91992;-45
2023/12/14 03:50:19;;;;;;;;;;;8.10;90.30;;;;;;4994384;28;91161;-45
2023/12/14 03:52:45;;;;;;;;;;;8.10;90.30;;;;;;4995187;28;92060;-45
2023/12/14 03:55:11;;;;;;;;;;;8.10;90.20;;;;;;4995067;28;92315;-47
2023/12/14 03:57:36;;;;;;;;;;;8.10;90.20;;;;;;4994148;28;93131;-46
2023/12/14 04:00:02;;;;;;;;;;;8.10;90.20;;;;;;4992917;28;91981;-46
2023/12/14 04:02:28;;;;;;;;;;;8.10;90.20;;;;;;4991974;28;93475;-45
2023/12/14 04:04:53;;;;;;;;;;;8.10;90.20;;;;;;4996922;28;92093;-46
2023/12/14 04:07:19;;;;;;;;;;;8.10;90.10;;;;;;4993741;28;92608;-45
2023/12/14 04:09:45;;;;;;;;;;;8.10;90.20;;;;;;4993417;28;92130;-45
2023/12/14 04:12:11;;;;;;;;;;;8.10;90.20;;;;;;4996042;28;91875;-46
2023/12/14 04:14:36;;;;;;;;;;;8.10;90.10;;;;;;4994276;28;92767;-46
2023/12/14 04:17:02;;;;;;;;;;;8.10;90.10;;;;;;4994777;28;92056;-46
2023/12/14 04:19:27;;;;;;;;;;;8.10;90.10;;;;;;4998424;28;92004;-45
2023/12/14 04:21:53;;;;;;;;;;;8.10;90.10;;;;;;4998819;28;93803;-46
2023/12/14 04:24:18;;;;;;;;;;;8.10;90.10;;;;;;4994199;28;92087;-45
2023/12/14 04:26:44;;;;;;;;;;;8.10;90.10;;;;;;4997799;28;92001;-45
2023/12/14 04:29:10;;;;;;;;;;;8.10;90.10;;;;;;5001127;28;92339;-45
2023/12/14 04:31:36;;;;;;;;;;;8.10;90.10;;;;;;4996855;28;92046;-45
2023/12/14 04:34:01;;;;;;;;;;;8.10;90.10;;;;;;4992777;28;93308;-46
2023/12/14 04:36:27;;;;;;;;;;;8.10;90.00;;;;;;4994129;28;92111;-46
2023/12/14 04:38:52;;;;;;;;;;;8.10;90.00;;;;;;4994428;28;91859;-45
2023/12/14 04:41:18;;;;;;;;;;;8.10;90.00;;;;;;4999556;28;92759;-46
2023/12/14 04:43:43;;;;;;;;;;;8.10;90.00;;;;;;4994433;28;91991;-46
2023/12/14 04:46:09;;;;;;;;;;;8.10;90.10;;;;;;4998094;28;92911;-46
2023/12/14 04:48:34;;;;;;;;;;;8.10;90.10;;;;;;4996842;28;92092;-45
2023/12/14 04:51:00;;;;;;;;;;;8.20;90.20;;;;;;4995675;28;92095;-44
2023/12/14 04:53:25;;;;;;;;;;;8.20;90.20;;;;;;4998268;28;92477;-45
2023/12/14 04:55:51;;;;;;;;;;;8.20;90.20;;;;;;4997011;28;92897;-47
2023/12/14 04:58:17;;;;;;;;;;;8.20;90.20;;;;;;4997773;28;92045;-45
2023/12/14 05:00:42;;;;;;;;;;;8.20;90.20;;;;;;4996466;28;92480;-46
2023/12/14 05:03:08;;;;;;;;;;;8.10;90.10;;;;;;4997866;28;91368;-45
2023/12/14 05:05:33;;;;;;;;;;;8.20;90.20;;;;;;4995126;28;92054;-46
2023/12/14 05:07:59;;;;;;;;;;;8.20;90.20;;;;;;4995925;28;92603;-45
2023/12/14 05:10:24;;;;;;;;;;;8.10;90.10;;;;;;4996284;28;92959;-46
2023/12/14 05:12:50;;;;;;;;;;;8.20;90.10;;;;;;4994967;28;92597;-46
2023/12/14 05:15:15;;;;;;;;;;;8.20;90.10;;;;;;4993968;28;92532;-46
2023/12/14 05:17:41;;;;;;;;;;;8.20;90.20;;;;;;4996950;28;92096;-45
2023/12/14 05:20:10;;;;;;;;;;;8.20;90.20;;;;;;4994721;28;93510;-45
2023/12/14 05:22:35;;;;;;;;;;;8.20;90.20;;;;;;4997023;28;92027;-44
2023/12/14 05:25:01;;;;;;;;;;;8.20;90.30;;;;;;4995091;28;92794;-45
2023/12/14 05:27:26;;;;;;;;;;;8.20;90.20;;;;;;4998003;28;91791;-46
2023/12/14 05:29:52;;;;;;;;;;;8.20;90.20;;;;;;5000920;28;92043;-46
2023/12/14 05:32:18;;;;;;;;;;;8.20;90.20;;;;;;4993979;28;92523;-46
2023/12/14 05:34:43;;;;;;;;;;;8.20;90.10;;;;;;4993282;28;93044;-45
2023/12/14 05:37:09;;;;;;;;;;;8.20;90.10;;;;;;4996494;28;92784;-45
2023/12/14 05:39:34;;;;;;;;;;;8.20;90.20;;;;;;4989439;28;92456;-44
2023/12/14 05:42:00;;;;;;;;;;;8.20;90.20;;;;;;4993267;28;92042;-46
2023/12/14 05:44:26;;;;;;;;;;;8.20;90.20;;;;;;4995489;28;93348;-45
2023/12/14 05:46:51;;;;;;;;;;;8.20;90.30;;;;;;4994504;28;93552;-45
2023/12/14 05:49:17;;;;;;;;;;;8.20;90.30;;;;;;4996877;28;92562;-45
2023/12/14 05:51:43;;;;;;;;;;;8.20;90.30;;;;;;4998804;28;92827;-46
2023/12/14 05:54:08;;;;;;;;;;;8.20;90.40;;;;;;4992540;28;92055;-46
2023/12/14 05:56:34;;;;;;;;;;;8.20;90.30;;;;;;4994622;28;92770;-45
2023/12/14 05:58:59;;;;;;;;;;;8.20;90.40;;;;;;4992426;28;93189;-46
2023/12/14 06:01:25;;;;;;;;;;;8.20;90.40;;;;;;4996591;28;92422;-45
2023/12/14 06:03:50;;;;;;;;;;;8.20;90.40;;;;;;4996204;28;91995;-45
2023/12/14 06:06:16;;;;;;;;;;;8.20;90.40;;;;;;4995744;28;93547;-46
2023/12/14 06:08:42;;;;;;;;;;;8.20;90.40;;;;;;4995168;28;92076;-46
2023/12/14 06:11:07;;;;;;;;;;;8.20;90.40;;;;;;4996704;28;92005;-45
2023/12/14 06:13:33;;;;;;;;;;;8.20;90.30;;;;;;4994806;28;93025;-45
2023/12/14 06:15:59;;;;;;;;;;;8.30;90.40;;;;;;4991833;28;92976;-45
2023/12/14 06:18:24;;;;;;;;;;;8.20;90.40;;;;;;4990352;28;92100;-46
2023/12/14 06:20:50;;;;;;;;;;;8.20;90.40;;;;;;4992705;28;92018;-46
2023/12/14 06:23:15;;;;;;;;;;;8.20;90.40;;;;;;5000845;28;93322;-45
2023/12/14 06:25:41;;;;;;;;;;;8.20;90.40;;;;;;4992293;28;92127;-46
2023/12/14 06:28:07;;;;;;;;;;;8.30;90.40;;;;;;4991993;28;93912;-45
2023/12/14 06:30:33;;;;;;;;;;;8.30;90.40;;;;;;4992253;28;92095;-45
2023/12/14 06:32:59;;;;;;;;;;;8.20;90.40;;;;;;4992290;28;93564;-46
2023/12/14 06:35:24;;;;;;;;;;;8.30;90.40;;;;;;4994049;28;92304;-46
2023/12/14 06:37:50;;;;;;;;;;;8.20;90.40;;;;;;4991563;28;92595;-46
2023/12/14 06:40:15;;;;;;;;;;;8.30;90.40;;;;;;4995471;28;91316;-46
2023/12/14 06:42:42;;;;;;;;;;;8.30;90.50;;;;;;4992694;28;92299;-45
2023/12/14 06:45:08;;;;;;;;;;;8.30;90.50;;;;;;4990542;28;93801;-45
2023/12/14 06:47:33;;;;;;;;;;;8.20;90.50;;;;;;4991241;28;92957;-47
2023/12/14 06:49:59;;;;;;;;;;;8.30;90.50;;;;;;4996286;28;93056;-45
2023/12/14 06:52:25;;;;;;;;;;;8.30;90.60;;;;;;4993648;28;92515;-45
2023/12/14 06:54:50;;;;;;;;;;;8.30;90.60;;;;;;5000367;28;92190;-45
2023/12/14 06:57:16;;;;;;;;;;;8.30;90.60;;;;;;4992583;28;92493;-45
2023/12/14 06:59:41;;;;;;;;;;;8.30;90.60;;;;;;4997432;28;92139;-45
2023/12/14 07:02:07;;;;;;;;;;;8.30;90.60;;;;;;4994179;28;93246;-47
2023/12/14 07:04:32;;;;;;;;;;;8.30;90.60;;;;;;4991968;28;91845;-45
2023/12/14 07:06:58;;;;;;;;;;;8.30;90.60;;;;;;4994709;28;92932;-45
2023/12/14 07:09:24;;;;;;;;;;;8.30;90.60;;;;;;4991682;28;92893;-46
2023/12/14 07:11:50;;;;;;;;;;;8.30;90.60;;;;;;4993472;28;93462;-46
2023/12/14 07:14:15;;;;;;;;;;;8.40;90.60;;;;;;4993516;28;92018;-45
2023/12/14 07:16:41;;;;;;;;;;;8.30;90.60;;;;;;4990830;28;92374;-46
2023/12/14 07:19:07;;;;;;;;;;;8.40;90.60;;;;;;4995279;28;92284;-45
2023/12/14 07:21:32;;;;;;;;;;;8.40;90.60;;;;;;4994868;28;92039;-46
2023/12/14 07:23:58;;;;;;;;;;;8.40;90.70;;;;;;4990926;28;93546;-45
2023/12/14 07:26:24;;;;;;;;;;;8.40;90.60;;;;;;4992351;28;92082;-45
2023/12/14 07:28:51;;;;;;;;;;;8.40;90.60;;;;;;4998484;28;94446;-45
2023/12/14 07:31:17;;;;;;;;;;;8.40;90.60;;;;;;4990324;28;93659;-45
2023/12/14 07:33:42;;;;;;;;;;;8.40;90.60;;;;;;4995246;28;95215;-46
2023/12/14 07:36:08;;;;;;;;;;;8.40;90.60;;;;;;4989926;28;93153;-44
2023/12/14 07:38:34;;;;;;;;;;;8.40;90.50;;;;;;4993629;28;92619;-46
2023/12/14 07:40:59;;;;;;;;;;;8.50;90.60;;;;;;4991387;28;92160;-47
2023/12/14 07:43:25;;;;;;;;;;;8.50;90.60;;;;;;4988877;28;92479;-46
2023/12/14 07:45:50;;;;;;;;;;;8.50;90.50;;;;;;4988107;28;92125;-45
2023/12/14 07:48:16;;;;;;;;;;;8.40;90.50;;;;;;4994561;28;92126;-45
2023/12/14 07:50:41;;;;;;;;;;;8.50;90.50;;;;;;4992839;28;92539;-45
2023/12/14 07:53:07;;;;;;;;;;;8.50;90.50;;;;;;4995035;28;91331;-45
2023/12/14 07:55:33;;;;;;;;;;;8.50;90.50;;;;;;4992184;28;92757;-47
2023/12/14 07:57:59;;;;;;;;;;;8.50;90.60;;;;;;4993017;28;93587;-45
2023/12/14 08:00:24;;;;;;;;;;;8.50;90.50;;;;;;5000052;28;93152;-46
2023/12/14 08:02:50;;;;;;;;;;;8.50;90.50;;;;;;4995260;28;92644;-45
2023/12/14 08:05:16;;;;;;;;;;;8.50;90.50;;;;;;4993541;28;92174;-45
2023/12/14 08:07:41;;;;;;;;;;;8.50;90.50;;;;;;5001317;28;93051;-45
2023/12/14 08:10:07;;;;;;;;;;;8.50;90.60;;;;;;4993921;28;92511;-46
2023/12/14 08:12:33;;;;;;;;;;;8.50;90.60;;;;;;4998688;28;92645;-45
2023/12/14 08:14:58;;;;;;;;;;;8.60;90.60;;;;;;4995797;28;92660;-45
2023/12/14 08:17:24;;;;;;;;;;;8.50;90.60;;;;;;4998158;28;91866;-45
2023/12/14 08:19:49;;;;;;;;;;;8.60;90.60;;;;;;4998850;28;92096;-45
2023/12/14 08:22:15;;;;;;;;;;;8.50;90.50;;;;;;4996863;28;92765;-46
2023/12/14 08:24:41;;;;;;;;;;;8.50;90.50;;;;;;4995337;28;94701;-45
2023/12/14 08:27:06;;;;;;;;;;;8.50;90.50;;;;;;4997358;28;92709;-45
2023/12/14 08:29:32;;;;;;;;;;;8.60;90.90;;;;;;4992991;28;92232;-45
2023/12/14 08:31:59;;;;;;;;;;;8.60;90.60;;;;;;4992004;28;92132;-45
2023/12/14 08:34:27;;;;;;;;;;;8.60;90.60;;;;;;4995052;28;92055;-45
2023/12/14 08:36:53;;;;;;;;;;;8.60;90.60;;;;;;4994758;28;93779;-47
2023/12/14 08:39:19;;;;;;;;;;;8.60;90.60;;;;;;4995836;28;93560;-45
2023/12/14 08:41:48;;;;;;;;;;;8.60;90.50;;;;;;4995605;28;91742;-45
2023/12/14 08:44:17;;;;;;;;;;;8.60;90.60;;;;;;4998833;28;93562;-45
2023/12/14 08:46:44;;;;;;;;;;;8.60;90.60;;;;;;4993553;28;92823;-45
2023/12/14 08:49:10;;;;;;;;;;;8.60;90.60;;;;;;5000980;28;94325;-45
2023/12/14 08:51:36;;;;;;;;;;;8.60;90.60;;;;;;4990851;28;92388;-46
2023/12/14 08:54:02;;;;;;;;;;;8.60;90.60;;;;;;4993308;28;92113;-45
2023/12/14 08:56:27;;;;;;;;;;;8.70;90.60;;;;;;4991970;28;93620;-46
2023/12/14 08:58:53;;;;;;;;;;;8.70;90.60;;;;;;4997351;28;92096;-46
2023/12/14 09:01:20;;;;;;;;;;;8.70;90.60;;;;;;4994393;28;92948;-46
2023/12/14 09:03:46;;;;;;;;;;;8.70;90.60;;;;;;4995957;28;93571;-46
2023/12/14 09:06:11;;;;;;;;;;;8.70;90.50;;;;;;4997387;28;91795;-45
2023/12/14 09:08:37;;;;;;;;;;;8.70;90.50;;;;;;4992009;28;92575;-45
2023/12/14 09:11:03;;;;;;;;;;;8.70;90.50;;;;;;4991956;28;92835;-45
2023/12/14 09:13:29;;;;;;;;;;;8.70;90.60;;;;;;4997195;28;92933;-46
2023/12/14 09:15:54;;;;;;;;;;;8.60;90.60;;;;;;4995466;28;92529;-46
2023/12/14 09:18:22;;;;;;;;;;;8.70;90.60;;;;;;4992698;28;92077;-45
2023/12/14 09:20:49;;;;;;;;;;;8.70;90.60;;;;;;4993129;28;93007;-45
2023/12/14 09:23:15;;;;;;;;;;;8.70;90.60;;;;;;4993648;28;92823;-45
2023/12/14 09:25:41;;;;;;;;;;;8.70;90.60;;;;;;4998826;28;92882;-47
2023/12/14 09:28:07;;;;;;;;;;;8.70;90.60;;;;;;4996118;28;92401;-46
2023/12/14 09:30:32;;;;;;;;;;;8.70;90.60;;;;;;4998594;28;92224;-45
2023/12/14 09:32:58;;;;;;;;;;;8.70;90.60;;;;;;4994394;28;92066;-46
2023/12/14 09:35:24;;;;;;;;;;;8.80;90.70;;;;;;4991751;28;92825;-45
2023/12/14 09:37:49;;;;;;;;;;;8.80;90.70;;;;;;4992866;28;93139;-45
2023/12/14 09:40:16;;;;;;;;;;;8.70;90.70;;;;;;4992540;28;93860;-45
2023/12/14 09:42:42;;;;;;;;;;;8.70;90.70;;;;;;5000658;28;93657;-45
2023/12/14 09:45:08;;;;;;;;;;;8.80;90.60;;;;;;4991447;28;92616;-47
2023/12/14 09:47:34;;;;;;;;;;;8.80;90.60;;;;;;4992271;28;92802;-46
2023/12/14 09:50:00;;;;;;;;;;;8.80;90.60;;;;;;4993649;28;92031;-45
2023/12/14 09:52:26;;;;;;;;;;;8.80;90.60;;;;;;4998258;28;92880;-45
2023/12/14 09:54:52;;;;;;;;;;;8.80;90.60;;;;;;4995432;28;92131;-47
2023/12/14 09:57:21;;;;;;;;;;;8.70;90.60;;;;;;4996462;28;92454;-45
2023/12/14 09:59:53;;;;;;;;;;;8.80;90.70;;;;;;4992379;28;92799;-45
2023/12/14 10:02:19;;;;;;;;;;;8.80;90.60;;;;;;4995219;28;93420;-45
2023/12/14 10:04:44;;;;;;;;;;;8.80;90.70;;;;;;4987676;28;92039;-46
2023/12/14 10:07:10;;;;;;;;;;;8.80;90.70;;;;;;4996541;28;92833;-45
2023/12/14 10:09:37;;;;;;;;;;;8.80;90.70;;;;;;4995438;28;93531;-46
2023/12/14 10:12:06;;;;;;;;;;;8.80;90.70;;;;;;4993362;28;93067;-45
2023/12/14 10:14:32;;;;;;;;;;;8.80;90.70;;;;;;4992949;28;92565;-46
2023/12/14 10:16:58;;;;;;;;;;;8.80;90.70;;;;;;4992089;28;92208;-45
2023/12/14 10:19:23;;;;;;;;;;;8.90;90.80;;;;;;4998273;28;92846;-45
2023/12/14 10:21:49;;;;;;;;;;;8.90;90.70;;;;;;4992912;28;93632;-45
2023/12/14 10:24:15;;;;;;;;;;;8.80;91.00;;;;;;4992374;28;92100;-45
2023/12/14 10:26:41;;;;;;;;;;;8.80;90.80;;;;;;4992939;28;92863;-45
2023/12/14 10:29:07;;;;;;;;;;;8.80;90.70;;;;;;4995695;28;92263;-45
2023/12/14 10:31:37;;;;;;;;;;;8.90;90.90;;;;;;4998640;28;92162;-44
2023/12/14 10:34:03;;;;;;;;;;;8.90;90.80;;;;;;4989956;28;93404;-45
2023/12/14 10:36:29;;;;;;;;;;;8.90;90.80;;;;;;4999303;28;92222;-45
2023/12/14 10:38:57;;;;;;;;;;;8.90;90.80;;;;;;4993764;28;91929;-45
2023/12/14 10:41:23;;;;;;;;;;;8.90;90.80;;;;;;4995060;28;92451;-45
2023/12/14 10:43:50;;;;;;;;;;;8.90;90.90;;;;;;4994778;28;91413;-46
2023/12/14 10:46:16;;;;;;;;;;;8.90;90.80;;;;;;4992098;28;92332;-45
2023/12/14 10:48:43;;;;;;;;;;;8.90;90.80;;;;;;4996666;28;92601;-45
2023/12/14 10:51:11;;;;;;;;;;;8.90;90.90;;;;;;4990526;28;93950;-45
2023/12/14 10:53:37;;;;;;;;;;;8.90;90.80;;;;;;4989932;28;93782;-45
2023/12/14 10:56:07;;;;;;;;;;;8.90;90.90;;;;;;4994378;28;91984;-45
2023/12/14 10:58:46;;;;;;;;;;;8.90;90.80;;;;;;4996862;28;92022;-45
2023/12/14 11:01:13;;;;;;;;;;;8.90;90.90;;;;;;4993289;28;93561;-46
2023/12/14 11:03:40;;;;;;;;;;;8.90;90.80;;;;;;4994621;28;92232;-45
2023/12/14 11:06:19;;;;;;;;;;;8.90;90.90;;;;;;4995142;28;92078;-45
2023/12/14 11:08:45;;;;;;;;;;;8.90;90.90;;;;;;4992430;28;92073;-46
2023/12/14 11:11:13;;;;;;;;;;;8.90;91.00;;;;;;4997698;28;92138;-45
2023/12/14 11:13:39;;;;;;;;;;;8.90;91.00;;;;;;4993819;28;92942;-45
2023/12/14 11:16:05;;;;;;;;;;;8.90;91.00;;;;;;4990171;28;92940;-46
2023/12/14 11:18:31;;;;;;;;;;;9.00;91.00;;;;;;4991363;28;92673;-46
2023/12/14 11:20:58;;;;;;;;;;;9.00;91.00;;;;;;4992683;28;91905;-46
2023/12/14 11:23:24;;;;;;;;;;;9.00;91.00;;;;;;4993556;28;91913;-46
2023/12/14 11:25:54;;;;;;;;;;;9.00;91.00;;;;;;4991431;28;92804;-46
2023/12/14 11:28:20;;;;;;;;;;;9.00;91.00;;;;;;4996345;28;92415;-45
2023/12/14 11:30:46;;;;;;;;;;;9.00;91.00;;;;;;4998894;28;93106;-46
2023/12/14 11:33:12;;;;;;;;;;;9.00;91.10;;;;;;4998882;28;91825;-46
2023/12/14 11:35:37;;;;;;;;;;;9.00;90.90;;;;;;5004408;28;92442;-49
2023/12/14 11:38:10;;;;;;;;;;;9.00;90.90;;;;;;4999386;28;92048;-46
2023/12/14 11:40:53;;;;;;;;;;;9.00;91.00;;;;;;4996437;28;94587;-48
2023/12/14 11:43:23;;;;;;;;;;;9.00;90.90;;;;;;5001367;28;91927;-45
2023/12/14 11:45:49;;;;;;;;;;;9.00;91.00;;;;;;4997793;28;92903;-46
2023/12/14 11:48:15;;;;;;;;;;;9.00;90.90;;;;;;5001069;28;93623;-45
2023/12/14 11:50:41;;;;;;;;;;;9.10;90.80;;;;;;4999841;28;92122;-46
2023/12/14 11:53:07;;;;;;;;;;;9.10;90.80;;;;;;5001677;28;93104;-45
2023/12/14 11:55:34;;;;;;;;;;;9.00;90.80;;;;;;4993010;28;93746;-47
2023/12/14 11:57:59;;;;;;;;;;;9.00;90.90;;;;;;5004104;28;91442;-45
2023/12/14 12:00:26;;;;;;;;;;;9.10;91.00;;;;;;5000034;28;92478;-46
2023/12/14 12:02:51;;;;;;;;;;;9.00;91.00;;;;;;4998517;28;92311;-46
2023/12/14 12:05:21;;;;;;;;;;;9.10;90.90;;;;;;4995594;28;93025;-46
2023/12/14 12:07:46;;;;;;;;;;;9.10;90.90;;;;;;5004969;28;93704;-45
2023/12/14 12:10:12;;;;;;;;;;;9.10;90.80;;;;;;5001996;28;92137;-45
2023/12/14 12:12:38;;;;;;;;;;;9.10;90.90;;;;;;5001544;28;93388;-47
2023/12/14 12:15:04;;;;;;;;;;;9.10;90.90;;;;;;5002164;28;92535;-46
2023/12/14 12:17:32;;;;;;;;;;;9.10;90.80;;;;;;4997267;28;92037;-45
2023/12/14 12:19:57;;;;;;;;;;;9.10;90.90;;;;;;5004121;28;93257;-46
2023/12/14 12:22:23;;;;;;;;;;;9.10;90.90;;;;;;5001276;28;91946;-46
2023/12/14 12:24:48;;;;;;;;;;;9.20;90.90;;;;;;4997553;28;93025;-45
2023/12/14 12:27:14;;;;;;;;;;;9.20;90.70;;;;;;4997044;28;92585;-46
2023/12/14 12:29:40;;;;;;;;;;;9.10;90.90;;;;;;5001468;28;93174;-47
2023/12/14 12:32:05;;;;;;;;;;;9.10;90.80;;;;;;5000351;28;92174;-45
2023/12/14 12:34:31;;;;;;;;;;;9.20;90.80;;;;;;4999080;28;92523;-45
2023/12/14 12:36:57;;;;;;;;;;;9.20;90.80;;;;;;4996931;28;92078;-46
2023/12/14 12:39:23;;;;;;;;;;;9.20;90.80;;;;;;5001896;28;92698;-45
2023/12/14 12:41:48;;;;;;;;;;;9.20;90.70;;;;;;5000019;28;92539;-47
2023/12/14 12:44:14;;;;;;;;;;;9.20;90.70;;;;;;4996759;28;93007;-47
2023/12/14 12:46:40;;;;;;;;;;;9.20;91.00;;;;;;4990562;28;91904;-45
2023/12/14 12:49:06;;;;;;;;;;;9.20;90.80;;;;;;5000258;28;92462;-46
2023/12/14 12:51:32;;;;;;;;;;;9.20;90.80;;;;;;4994742;28;92161;-45
2023/12/14 12:53:58;;;;;;;;;;;9.20;90.90;;;;;;4996257;28;93503;-46
2023/12/14 12:56:24;;;;;;;;;;;9.20;90.80;;;;;;4994684;28;92065;-46
2023/12/14 12:58:51;;;;;;;;;;;9.20;90.90;;;;;;4997591;28;92691;-45
2023/12/14 13:01:17;;;;;;;;;;;9.20;90.80;;;;;;4989637;28;92476;-45
2023/12/14 13:03:43;;;;;;;;;;;9.20;90.80;;;;;;4996237;28;91846;-46
2023/12/14 13:06:08;;;;;;;;;;;9.20;90.80;;;;;;4995690;28;93619;-47
2023/12/14 13:08:34;;;;;;;;;;;9.20;90.70;;;;;;4995278;28;92036;-45
2023/12/14 13:11:00;;;;;;;;;;;9.20;90.90;;;;;;4993431;28;92235;-46
2023/12/14 13:13:25;;;;;;;;;;;9.20;90.80;;;;;;4994102;28;92575;-45
2023/12/14 13:15:51;;;;;;;;;;;9.20;91.10;;;;;;4999602;28;92018;-45
2023/12/14 13:18:16;;;;;;;;;;;9.20;90.80;;;;;;4995492;28;93175;-45
2023/12/14 13:20:42;;;;;;;;;;;9.20;90.80;;;;;;4990557;28;93727;-47
2023/12/14 13:23:08;;;;;;;;;;;9.20;90.80;;;;;;4998190;28;92565;-46
2023/12/14 13:25:34;;;;;;;;;;;9.20;90.80;;;;;;4999862;28;93600;-45
2023/12/14 13:28:00;;;;;;;;;;;9.20;90.80;;;;;;4994534;28;92218;-46
2023/12/14 13:30:26;;;;;;;;;;;9.20;90.90;;;;;;4993688;28;92229;-45
2023/12/14 13:32:53;;;;;;;;;;;9.20;90.70;;;;;;4993970;28;93732;-47
2023/12/14 13:35:19;;;;;;;;;;;9.20;90.80;;;;;;4999271;28;91545;-48
2023/12/14 13:37:46;;;;;;;;;;;9.20;90.90;;;;;;4989782;28;92090;-45
2023/12/14 13:40:12;;;;;;;;;;;9.20;90.80;;;;;;4991461;28;93605;-45
2023/12/14 13:42:38;;;;;;;;;;;9.20;90.80;;;;;;4995161;28;92997;-46
2023/12/14 13:45:04;;;;;;;;;;;9.20;90.90;;;;;;4995287;28;93653;-46
2023/12/14 13:47:29;;;;;;;;;;;9.20;90.80;;;;;;4992937;28;93045;-47
2023/12/14 13:49:55;;;;;;;;;;;9.20;90.70;;;;;;4992928;28;91905;-46
2023/12/14 13:52:20;;;;;;;;;;;9.20;90.80;;;;;;4995656;28;92532;-45
2023/12/14 13:54:46;;;;;;;;;;;9.20;90.80;;;;;;4990640;28;92097;-46
2023/12/14 13:57:11;;;;;;;;;;;9.20;90.70;;;;;;4993111;28;93026;-45
2023/12/14 13:59:37;;;;;;;;;;;9.20;90.60;;;;;;4996255;28;91797;-45
2023/12/14 14:02:03;;;;;;;;;;;9.20;90.60;;;;;;4997980;28;92037;-46
2023/12/14 14:04:28;;;;;;;;;;;9.20;90.60;;;;;;4994996;28;92022;-46
2023/12/14 14:06:54;;;;;;;;;;;9.20;90.70;;;;;;4999423;28;93415;-46
2023/12/14 14:09:20;;;;;;;;;;;9.20;90.60;;;;;;4996344;28;93162;-46
2023/12/14 14:11:48;;;;;;;;;;;9.20;90.40;;;;;;4995255;28;95319;-45
2023/12/14 14:14:14;;;;;;;;;;;9.20;90.50;;;;;;4989008;28;92089;-45
2023/12/14 14:16:39;;;;;;;;;;;9.20;90.60;;;;;;4993293;28;92757;-45
2023/12/14 14:19:05;;;;;;;;;;;9.20;90.60;;;;;;4991580;28;92510;-45
2023/12/14 14:21:30;;;;;;;;;;;9.20;90.60;;;;;;4995736;28;92092;-46
2023/12/14 14:23:56;;;;;;;;;;;9.20;90.50;;;;;;4989787;28;92403;-46